Dallas Love Field
KDAL : now visible

Airfield :











YOU CAN JOIN US ON...

 
LOGIN :

Register | Disclaimer

   EN    FR    IT 

 









Legend :    VFR   Marginal VFR   IFR   Intensive IFR   Very Intensive IFR
Visi :
Ceiling :
>= 8 km
>= 3000ft
5 to 8 km
1000 to 3000 ft
1500m to 5 km
500 to 1000 ft
800 to 1500m
200 to 500 ft
< 800m
< 200 ft
Symbols :   Thunderstorms  Fog  Heavy snow  Heavy precipitations  Wind > 20 kt







- Airport Elevation : 487 ft
- IATA code : DAL


KDAL - Dallas Love Field

CURRENT METAR :
  • 191653Z 18008KT 10SM FEW042 FEW250 33/20 A2997 RMK AO2 SLP141 T03330200 $

EXPIRED METARs :
  • 191553Z 17009KT 10SM FEW040 FEW250 32/21 A2998 RMK AO2 SLP143 T03170206 $
  • 191453Z 19007KT 10SM FEW030 FEW250 31/21 A2997 RMK AO2 SLP140 T03060206 51006 $

TAF KDAL
Valid from the 19 at 15:00 until the 20 at 12:00 UTC


191445Z 1915/2012 17015KT P6SM FEW050
KZFW FIR / North America



MET'MAP, your aeronautical weather chart ! - Copyright ORBIFLY December 2007 - Disclaimer

ORBIFLY MET'MAP TEAM :

Programming & Development : Alexandra Zaïnal
Concept & Development : Baudouin d'Aumeries
Co-Development & Prog : Marc-Olivier Méhu
Technical & hardware support : Manuel Goepfert

Contact : metmap@orbifly.com




SOURCES & CREDITS :

   NOAA       Earth
Advisory